Time;durP1;ratioP1;P1;durP2;ratioP2;P2;SDS_P1;SDS_P2;PMS_P1;PMS_P2;Temp;Humidity;BMP_temperature;BMP_pressure;BME280_temperature;BME280_humidity;BME280_pressure;Samples;Min_cycle;Max_cycle;Signal;HPM_P1;HPM_P2
2023/12/19 00:02:05;;;;;;;20.83;10.80;;;2.80;99.90;;;;;;5058163;28;20558;-71
2023/12/19 00:04:34;;;;;;;15.73;10.87;;;2.80;99.90;;;;;;5056775;28;20558;-70
2023/12/19 00:07:01;;;;;;;36.77;15.20;;;2.70;99.90;;;;;;5050722;28;20476;-72
2023/12/19 00:09:27;;;;;;;27.63;13.50;;;2.70;99.90;;;;;;5050134;28;20502;-73
2023/12/19 00:11:54;;;;;;;44.63;19.27;;;2.80;99.90;;;;;;5032275;28;20510;-77
2023/12/19 00:14:21;;;;;;;29.77;15.20;;;2.80;99.90;;;;;;5049089;28;20506;-76
2023/12/19 00:16:48;;;;;;;29.17;12.23;;;2.80;99.90;;;;;;5045894;28;20502;-72
2023/12/19 00:19:14;;;;;;;38.13;17.63;;;2.80;99.90;;;;;;5061726;28;20555;-74
2023/12/19 00:21:43;;;;;;;34.17;17.23;;;2.80;99.90;;;;;;5055869;28;20585;-76
2023/12/19 00:24:10;;;;;;;32.80;14.50;;;2.70;99.90;;;;;;5058108;28;20542;-70
2023/12/19 00:26:37;;;;;;;38.13;15.93;;;2.90;99.90;;;;;;5041994;28;21247;-75
2023/12/19 00:29:04;;;;;;;38.53;14.00;;;2.90;99.90;;;;;;5036994;28;20962;-75
2023/12/19 00:31:31;;;;;;;38.03;19.20;;;3.00;99.90;;;;;;5036204;28;20489;-75
2023/12/19 00:33:58;;;;;;;44.10;19.33;;;3.00;99.90;;;;;;5025198;28;20466;-73
2023/12/19 00:36:24;;;;;;;39.20;15.80;;;3.00;99.90;;;;;;5044544;28;20545;-76
2023/12/19 00:38:52;;;;;;;36.93;15.87;;;3.10;99.90;;;;;;5063564;28;20486;-73
2023/12/19 00:41:19;;;;;;;32.97;16.27;;;3.10;99.90;;;;;;5032935;28;20331;-75
2023/12/19 00:43:46;;;;;;;28.80;14.77;;;3.10;99.90;;;;;;5053602;28;21191;-75
2023/12/19 00:46:13;;;;;;;26.10;17.10;;;3.10;99.90;;;;;;5041944;28;20573;-75
2023/12/19 00:48:40;;;;;;;37.37;15.00;;;3.00;99.90;;;;;;5026061;28;20570;-75
2023/12/19 00:51:10;;;;;;;24.70;12.40;;;2.90;99.90;;;;;;5029222;28;20569;-76
2023/12/19 00:53:38;;;;;;;61.97;24.30;;;;;;;;;;5042386;28;20474;-73
2023/12/19 00:56:08;;;;;;;17.90;9.77;;;2.60;99.90;;;;;;5037738;28;20870;-77
2023/12/19 00:58:36;;;;;;;40.33;19.20;;;2.70;99.90;;;;;;5047403;28;20582;-76
2023/12/19 01:01:02;;;;;;;36.37;17.80;;;2.90;99.90;;;;;;5046763;28;21021;-75
2023/12/19 01:03:29;;;;;;;38.77;17.07;;;2.90;99.90;;;;;;5058175;28;20535;-73
2023/12/19 01:05:56;;;;;;;36.50;18.17;;;2.90;99.90;;;;;;5043385;28;21313;-73
2023/12/19 01:08:23;;;;;;;30.33;15.13;;;3.00;99.90;;;;;;5049758;28;20476;-77
2023/12/19 01:10:50;;;;;;;34.70;16.10;;;3.00;99.90;;;;;;5060648;28;20561;-73
2023/12/19 01:13:18;;;;;;;37.27;18.63;;;3.00;99.90;;;;;;5050691;28;20598;-76
2023/12/19 01:15:45;;;;;;;21.60;10.50;;;2.90;99.90;;;;;;5050510;28;20568;-76
2023/12/19 01:18:12;;;;;;;31.67;15.53;;;2.90;99.90;;;;;;5030018;28;21280;-72
2023/12/19 01:20:40;;;;;;;24.23;13.43;;;3.10;99.90;;;;;;5057952;28;20514;-76
2023/12/19 01:23:07;;;;;;;31.30;15.40;;;3.10;99.90;;;;;;5046063;28;20562;-75
2023/12/19 01:25:34;;;;;;;31.83;17.00;;;3.20;99.90;;;;;;5048692;28;20514;-76
2023/12/19 01:28:01;;;;;;;19.53;8.57;;;3.20;99.90;;;;;;5053504;28;20513;-75
2023/12/19 01:30:29;;;;;;;32.60;14.40;;;3.20;99.90;;;;;;5047943;28;20491;-74
2023/12/19 01:32:56;;;;;;;24.03;13.10;;;3.20;99.90;;;;;;5049672;28;21065;-76
2023/12/19 01:35:23;;;;;;;19.30;11.30;;;3.20;99.90;;;;;;5048167;28;21228;-77
2023/12/19 01:37:50;;;;;;;36.10;11.87;;;3.20;99.90;;;;;;5048041;28;20483;-75
2023/12/19 01:40:17;;;;;;;28.83;15.47;;;3.30;99.90;;;;;;5052698;28;20573;-77
2023/12/19 01:42:44;;;;;;;15.97;9.27;;;3.20;99.90;;;;;;5040639;28;20488;-76
2023/12/19 01:45:12;;;;;;;20.53;11.57;;;3.20;99.90;;;;;;5034936;28;20479;-71
2023/12/19 01:47:43;;;;;;;15.87;8.43;;;3.10;99.90;;;;;;5056707;28;21174;-77
2023/12/19 01:50:11;;;;;;;14.20;6.30;;;3.00;99.90;;;;;;5058334;28;20478;-76
2023/12/19 01:52:42;;;;;;;15.10;8.10;;;3.00;99.90;;;;;;5031634;28;20578;-74
2023/12/19 01:55:10;;;;;;;38.83;14.30;;;3.10;99.90;;;;;;5045698;28;20514;-77
2023/12/19 01:57:37;;;;;;;20.17;10.07;;;3.10;99.90;;;;;;5057151;28;20552;-75
2023/12/19 02:00:05;;;;;;;28.10;11.17;;;3.20;99.90;;;;;;5065497;28;21036;-77
2023/12/19 02:02:32;;;;;;;26.07;12.90;;;3.20;99.90;;;;;;5034068;28;20502;-77
2023/12/19 02:05:01;;;;;;;26.13;13.20;;;3.20;99.90;;;;;;5017670;28;20561;-76
2023/12/19 02:07:27;;;;;;;29.30;13.60;;;3.20;99.90;;;;;;5047535;28;20486;-75
2023/12/19 02:09:54;;;;;;;32.00;12.80;;;3.20;99.90;;;;;;5051055;28;20548;-76
2023/12/19 02:12:21;;;;;;;31.57;14.70;;;3.10;99.90;;;;;;5046112;28;20485;-75
2023/12/19 02:14:49;;;;;;;28.73;14.20;;;3.00;99.90;;;;;;5048202;28;20840;-77
2023/12/19 02:17:16;;;;;;;27.07;13.20;;;3.00;99.90;;;;;;5058595;28;20572;-73
2023/12/19 02:19:45;;;;;;;24.40;11.50;;;3.00;99.90;;;;;;5046933;28;20924;-74
2023/12/19 02:22:13;;;;;;;27.97;15.37;;;2.90;99.90;;;;;;5061992;28;20602;-75
2023/12/19 02:24:42;;;;;;;31.20;14.67;;;2.90;99.90;;;;;;5053452;28;20511;-75
2023/12/19 02:27:09;;;;;;;25.77;12.10;;;2.80;99.90;;;;;;5061714;28;20624;-74
2023/12/19 02:29:36;;;;;;;40.63;12.27;;;2.80;99.90;;;;;;5046524;28;20551;-73
2023/12/19 02:32:04;;;;;;;21.30;14.70;;;2.90;99.90;;;;;;5025496;28;21010;-74
2023/12/19 02:34:31;;;;;;;33.60;16.43;;;2.80;99.90;;;;;;5038704;28;20959;-72
2023/12/19 02:36:57;;;;;;;26.00;11.83;;;2.80;99.90;;;;;;5058656;28;20552;-75
2023/12/19 02:39:24;;;;;;;12.30;8.17;;;2.80;99.90;;;;;;5041955;28;20570;-74
2023/12/19 02:41:53;;;;;;;25.97;13.97;;;2.90;99.90;;;;;;5033961;28;21520;-75
2023/12/19 02:44:19;;;;;;;44.67;17.60;;;3.00;99.90;;;;;;5035993;28;20902;-76
2023/12/19 02:46:46;;;;;;;39.57;14.30;;;3.00;99.90;;;;;;5031683;28;21188;-75
2023/12/19 02:49:13;;;;;;;35.27;15.83;;;2.90;99.90;;;;;;5026104;28;20989;-73
2023/12/19 02:51:40;;;;;;;23.70;14.20;;;2.90;99.90;;;;;;5039839;28;20488;-74
2023/12/19 02:54:07;;;;;;;24.43;11.40;;;2.80;99.90;;;;;;5023703;28;20561;-74
2023/12/19 02:56:34;;;;;;;30.63;15.27;;;2.80;99.90;;;;;;5042268;28;20555;-74
2023/12/19 02:59:02;;;;;;;42.23;22.77;;;2.70;99.90;;;;;;5031105;28;20506;-77
2023/12/19 03:01:29;;;;;;;21.73;11.70;;;2.80;99.90;;;;;;5035616;28;20569;-70
2023/12/19 03:03:56;;;;;;;30.30;13.80;;;;;;;;;;5057047;28;20493;-69
2023/12/19 03:06:23;;;;;;;34.33;14.10;;;2.80;99.90;;;;;;5042841;28;20918;-76
2023/12/19 03:08:53;;;;;;;28.30;13.50;;;2.90;99.90;;;;;;5034529;28;20570;-75
2023/12/19 03:11:20;;;;;;;26.30;9.37;;;2.90;99.90;;;;;;5029944;28;20484;-73
2023/12/19 03:13:46;;;;;;;14.27;7.67;;;2.80;99.90;;;;;;5045610;28;21122;-77
2023/12/19 03:16:15;;;;;;;18.57;8.30;;;2.80;99.90;;;;;;5029770;28;21028;-73
2023/12/19 03:18:41;;;;;;;28.57;12.10;;;2.80;99.90;;;;;;5049183;28;20588;-75
2023/12/19 03:21:08;;;;;;;29.33;10.80;;;2.70;99.90;;;;;;5048543;28;20518;-78
2023/12/19 03:23:35;;;;;;;23.30;11.53;;;2.80;99.90;;;;;;5019581;28;20660;-75
2023/12/19 03:26:02;;;;;;;30.80;15.97;;;2.70;99.90;;;;;;5043800;28;20506;-74
2023/12/19 03:28:29;;;;;;;23.43;10.27;;;2.70;99.90;;;;;;5034093;28;20937;-78
2023/12/19 03:30:56;;;;;;;24.03;12.27;;;2.80;99.90;;;;;;5031199;28;20524;-76
2023/12/19 03:33:24;;;;;;;20.17;10.97;;;2.80;99.90;;;;;;5034366;28;20825;-71
2023/12/19 03:35:51;;;;;;;20.10;8.77;;;2.70;99.90;;;;;;5013546;28;20566;-77
2023/12/19 03:38:18;;;;;;;19.00;10.10;;;2.80;99.90;;;;;;5033662;28;21211;-72
2023/12/19 03:40:45;;;;;;;27.77;10.10;;;2.80;99.90;;;;;;5029321;28;20967;-76
2023/12/19 03:43:12;;;;;;;32.23;13.73;;;2.60;99.90;;;;;;5042291;28;20570;-75
2023/12/19 03:45:38;;;;;;;36.67;8.23;;;2.70;99.90;;;;;;5045588;28;20490;-73
2023/12/19 03:48:06;;;;;;;25.17;13.80;;;2.60;99.90;;;;;;5047328;28;20483;-75
2023/12/19 03:50:34;;;;;;;15.63;8.40;;;2.60;99.90;;;;;;5022758;28;20570;-70
2023/12/19 03:53:01;;;;;;;16.93;9.50;;;2.60;99.90;;;;;;5048548;28;20908;-73
2023/12/19 03:55:28;;;;;;;43.50;11.53;;;2.70;99.90;;;;;;5036632;28;21395;-76
2023/12/19 03:57:55;;;;;;;17.97;9.10;;;2.70;99.90;;;;;;5046245;28;21006;-77
2023/12/19 04:00:22;;;;;;;12.27;6.40;;;2.80;99.90;;;;;;5042758;28;21380;-76
2023/12/19 04:02:48;;;;;;;14.50;8.17;;;2.80;99.90;;;;;;5048635;28;20596;-72
2023/12/19 04:05:15;;;;;;;13.23;8.40;;;2.90;99.90;;;;;;5032041;28;20574;-78
2023/12/19 04:07:43;;;;;;;15.27;10.20;;;2.90;99.90;;;;;;5026032;28;20514;-79
2023/12/19 04:10:11;;;;;;;21.73;11.90;;;2.80;99.90;;;;;;5039225;28;20512;-75
2023/12/19 04:12:37;;;;;;;22.57;14.07;;;2.90;99.90;;;;;;5047523;28;20595;-75
2023/12/19 04:15:05;;;;;;;28.27;12.13;;;2.90;99.90;;;;;;5055396;28;20565;-76
2023/12/19 04:17:31;;;;;;;19.17;7.90;;;2.90;99.90;;;;;;5008498;28;20908;-73
2023/12/19 04:19:59;;;;;;;21.80;6.00;;;2.90;99.90;;;;;;5036819;28;20492;-76
2023/12/19 04:22:26;;;;;;;7.93;5.77;;;2.80;99.90;;;;;;5025440;28;20484;-72
2023/12/19 04:24:57;;;;;;;21.03;9.30;;;2.80;99.90;;;;;;5046030;28;20564;-73
2023/12/19 04:27:26;;;;;;;19.00;8.40;;;2.70;99.90;;;;;;5015166;28;20482;-75
2023/12/19 04:29:55;;;;;;;9.03;6.23;;;2.70;99.90;;;;;;5041859;28;20984;-72
2023/12/19 04:32:21;;;;;;;18.50;10.50;;;2.70;99.90;;;;;;5032444;28;20582;-77
2023/12/19 04:34:48;;;;;;;15.70;9.20;;;2.80;99.90;;;;;;5025658;28;21205;-75
2023/12/19 04:37:15;;;;;;;13.40;8.70;;;2.90;99.90;;;;;;5021103;28;20547;-71
2023/12/19 04:39:42;;;;;;;14.20;7.63;;;2.90;99.90;;;;;;5049652;28;20555;-76
2023/12/19 04:42:17;;;;;;;16.60;7.37;;;2.80;99.90;;;;;;5036052;28;20586;-73
2023/12/19 04:44:44;;;;;;;15.93;9.77;;;2.80;99.90;;;;;;5033379;28;20502;-70
2023/12/19 04:47:10;;;;;;;22.20;10.07;;;2.70;99.90;;;;;;5043617;28;20577;-74
2023/12/19 04:49:37;;;;;;;25.60;12.23;;;2.80;99.90;;;;;;5044645;28;21109;-73
2023/12/19 04:52:05;;;;;;;25.67;11.77;;;2.80;99.90;;;;;;5030343;28;20578;-74
2023/12/19 04:54:32;;;;;;;43.07;12.40;;;2.80;99.90;;;;;;5043971;28;20506;-75
2023/12/19 04:56:59;;;;;;;12.30;6.27;;;2.80;99.90;;;;;;5027874;28;20490;-75
2023/12/19 04:59:27;;;;;;;22.13;11.10;;;2.80;99.90;;;;;;5031307;28;20658;-76
2023/12/19 05:01:54;;;;;;;26.27;12.10;;;2.90;99.90;;;;;;5032204;28;20627;-76
2023/12/19 05:04:21;;;;;;;27.57;10.10;;;2.90;99.90;;;;;;5039606;28;20571;-74
2023/12/19 05:06:47;;;;;;;23.80;10.97;;;2.90;99.90;;;;;;5030722;28;20879;-74
2023/12/19 05:09:14;;;;;;;21.90;11.10;;;2.90;99.90;;;;;;5017150;28;20537;-76
2023/12/19 05:11:44;;;;;;;20.20;9.70;;;2.90;99.90;;;;;;5036619;28;20602;-77
2023/12/19 05:14:10;;;;;;;25.47;12.47;;;2.90;99.90;;;;;;5049123;28;20482;-72
2023/12/19 05:16:39;;;;;;;21.00;9.60;;;2.90;99.90;;;;;;5030506;28;20816;-73
2023/12/19 05:19:05;;;;;;;17.70;8.90;;;2.90;99.90;;;;;;5026308;28;20554;-74
2023/12/19 05:21:37;;;;;;;30.07;8.83;;;2.90;99.90;;;;;;5039057;28;20512;-75
2023/12/19 05:24:05;;;;;;;17.30;8.80;;;2.90;99.90;;;;;;5025470;28;20507;-77
2023/12/19 05:26:31;;;;;;;18.50;10.10;;;3.00;99.90;;;;;;5031883;28;20537;-72
2023/12/19 05:28:58;;;;;;;19.37;9.30;;;3.00;99.90;;;;;;5036352;28;20476;-77
2023/12/19 05:31:25;;;;;;;25.70;10.70;;;3.00;99.90;;;;;;5034569;28;20574;-77
2023/12/19 05:33:53;;;;;;;25.00;11.73;;;3.00;99.90;;;;;;5027981;28;20591;-72
2023/12/19 05:36:21;;;;;;;12.20;5.33;;;2.80;99.90;;;;;;5031681;28;21016;-73
2023/12/19 05:38:48;;;;;;;18.67;6.93;;;2.80;99.90;;;;;;5020971;28;20499;-74
2023/12/19 05:41:16;;;;;;;19.10;11.67;;;2.80;99.90;;;;;;5044891;28;20554;-74
2023/12/19 05:43:43;;;;;;;19.33;9.53;;;2.90;99.90;;;;;;5031367;28;20568;-72
2023/12/19 05:46:10;;;;;;;20.63;12.43;;;2.90;99.90;;;;;;5036427;28;20555;-76
2023/12/19 05:48:36;;;;;;;17.43;7.17;;;2.90;99.90;;;;;;5037148;28;20648;-73
2023/12/19 05:51:05;;;;;;;16.30;8.30;;;2.90;99.90;;;;;;5042077;28;21255;-75
2023/12/19 05:53:32;;;;;;;16.37;9.17;;;2.90;99.90;;;;;;5027453;28;20581;-73
2023/12/19 05:55:58;;;;;;;21.13;10.77;;;2.80;99.90;;;;;;5044905;28;20480;-71
2023/12/19 05:58:25;;;;;;;23.50;11.37;;;2.80;99.90;;;;;;5028295;28;20483;-75
2023/12/19 06:00:55;;;;;;;20.10;8.97;;;2.60;99.90;;;;;;5037032;28;20579;-73
2023/12/19 06:03:22;;;;;;;25.43;10.97;;;2.70;99.90;;;;;;5027289;28;20696;-76
2023/12/19 06:05:49;;;;;;;20.73;10.93;;;2.70;99.90;;;;;;5040394;28;20569;-74
2023/12/19 06:08:20;;;;;;;16.20;10.10;;;2.60;99.90;;;;;;5024844;28;20475;-72
2023/12/19 06:10:47;;;;;;;27.00;12.00;;;2.70;99.90;;;;;;5040259;28;20506;-72
2023/12/19 06:13:14;;;;;;;23.00;8.93;;;2.60;99.90;;;;;;5044804;28;20862;-70
2023/12/19 06:15:40;;;;;;;21.37;10.07;;;2.60;99.90;;;;;;5026228;28;20949;-77
2023/12/19 06:18:07;;;;;;;20.80;10.17;;;2.50;99.90;;;;;;5031464;28;20964;-73
2023/12/19 06:20:34;;;;;;;17.60;10.73;;;2.50;99.90;;;;;;5038101;28;20582;-71
2023/12/19 06:23:01;;;;;;;23.47;8.13;;;2.50;99.90;;;;;;5029301;28;20490;-70
2023/12/19 06:25:31;;;;;;;13.80;7.90;;;2.50;99.90;;;;;;5026846;28;20873;-72
2023/12/19 06:27:58;;;;;;;21.10;9.43;;;2.40;99.90;;;;;;5017856;28;20867;-74
2023/12/19 06:30:25;;;;;;;22.50;9.40;;;2.40;99.90;;;;;;5010675;28;21344;-71
2023/12/19 06:32:52;;;;;;;23.27;7.33;;;2.40;99.90;;;;;;5014261;28;22925;-75
2023/12/19 06:35:18;;;;;;;12.77;6.57;;;2.30;99.90;;;;;;5021782;28;21156;-73
2023/12/19 06:37:45;;;;;;;43.97;10.63;;;2.40;99.90;;;;;;5030668;28;20563;-74
2023/12/19 06:40:13;;;;;;;16.60;8.33;;;2.40;99.90;;;;;;5038696;28;20598;-75
2023/12/19 06:42:41;;;;;;;14.03;6.83;;;2.40;99.90;;;;;;5042428;28;20559;-73
2023/12/19 06:45:08;;;;;;;12.40;6.87;;;;;;;;;;5021912;28;20472;-74
2023/12/19 06:47:35;;;;;;;25.20;7.73;;;2.40;99.90;;;;;;5046561;28;20840;-73
2023/12/19 06:50:03;;;;;;;10.87;7.13;;;2.40;99.90;;;;;;5010564;28;20789;-74
2023/12/19 06:52:30;;;;;;;17.93;8.40;;;;;;;;;;5049919;28;20569;-75
2023/12/19 06:54:57;;;;;;;13.20;7.13;;;2.40;99.90;;;;;;5032672;28;20565;-74
2023/12/19 06:57:24;;;;;;;15.67;7.80;;;2.40;99.90;;;;;;5032688;28;20495;-77
2023/12/19 06:59:53;;;;;;;15.70;6.37;;;2.50;99.90;;;;;;5041741;28;21001;-72
2023/12/19 07:02:20;;;;;;;21.00;9.40;;;2.50;99.90;;;;;;5027387;28;20507;-73
2023/12/19 07:04:47;;;;;;;21.00;13.30;;;;;;;;;;5028602;28;20771;-74
2023/12/19 07:07:14;;;;;;;31.60;10.90;;;;;;;;;;5039529;28;21085;-78
2023/12/19 07:09:41;;;;;;;19.03;8.93;;;2.20;99.90;;;;;;5047168;28;20486;-74
2023/12/19 07:12:08;;;;;;;18.27;5.63;;;2.20;99.90;;;;;;5045050;28;20483;-72
2023/12/19 07:14:35;;;;;;;21.30;11.07;;;2.20;99.90;;;;;;5055886;28;20479;-74
2023/12/19 07:17:04;;;;;;;22.50;10.90;;;2.20;99.90;;;;;;5053056;28;20574;-72
2023/12/19 07:19:30;;;;;;;18.33;8.57;;;2.30;99.90;;;;;;5049028;28;20939;-71
2023/12/19 07:21:57;;;;;;;23.10;13.87;;;2.10;99.90;;;;;;5050943;28;20538;-71
2023/12/19 07:24:24;;;;;;;14.63;7.90;;;2.20;99.90;;;;;;5052611;28;20565;-76
2023/12/19 07:26:51;;;;;;;22.27;9.03;;;2.30;99.90;;;;;;5063697;28;20581;-71
2023/12/19 07:29:17;;;;;;;18.57;9.23;;;2.30;99.90;;;;;;5050455;28;20607;-75
2023/12/19 07:31:44;;;;;;;17.60;8.03;;;2.30;99.90;;;;;;5055055;28;20573;-74
2023/12/19 07:34:13;;;;;;;29.57;16.77;;;2.10;99.90;;;;;;5033342;28;20632;-72
2023/12/19 07:36:40;;;;;;;20.67;12.73;;;2.30;99.90;;;;;;5039105;28;20537;-71
2023/12/19 07:39:07;;;;;;;23.10;11.50;;;2.10;99.90;;;;;;5055498;28;21785;-73
2023/12/19 07:41:34;;;;;;;29.87;10.43;;;2.10;99.90;;;;;;5025584;28;21228;-74
2023/12/19 07:44:01;;;;;;;23.93;11.00;;;2.10;99.90;;;;;;5053065;28;20609;-73
2023/12/19 07:46:28;;;;;;;29.67;11.73;;;2.20;99.90;;;;;;5048858;28;20463;-74
2023/12/19 07:48:55;;;;;;;27.63;17.47;;;2.30;99.90;;;;;;5028538;28;20569;-75
2023/12/19 07:51:24;;;;;;;12.77;8.20;;;2.20;99.90;;;;;;5054518;28;20569;-75
2023/12/19 07:53:51;;;;;;;16.97;6.00;;;2.20;99.90;;;;;;5046153;28;20483;-75
2023/12/19 07:56:18;;;;;;;11.17;6.00;;;2.20;99.90;;;;;;5043782;28;20515;-75
2023/12/19 07:58:45;;;;;;;21.07;13.80;;;2.20;99.90;;;;;;5044385;28;20569;-74
2023/12/19 08:01:12;;;;;;;8.20;5.60;;;2.20;99.90;;;;;;5059979;28;20523;-74
2023/12/19 08:03:41;;;;;;;18.27;8.57;;;2.20;99.90;;;;;;5012545;28;20488;-76
2023/12/19 08:06:08;;;;;;;27.57;17.33;;;2.20;99.90;;;;;;5042301;28;20494;-74
2023/12/19 08:08:36;;;;;;;30.87;17.63;;;2.20;99.90;;;;;;5054141;28;20956;-70
2023/12/19 08:11:03;;;;;;;24.73;13.37;;;2.20;99.90;;;;;;5047125;28;20988;-78
2023/12/19 08:13:29;;;;;;;11.40;6.20;;;2.30;99.90;;;;;;5063896;28;20562;-75
2023/12/19 08:15:56;;;;;;;32.30;9.07;;;;;;;;;;5054182;28;20581;-72
2023/12/19 08:18:23;;;;;;;16.00;8.60;;;2.30;99.90;;;;;;5051653;28;20921;-76
2023/12/19 08:20:50;;;;;;;33.73;11.87;;;2.30;99.90;;;;;;5053929;28;20997;-75
2023/12/19 08:23:17;;;;;;;50.33;11.00;;;2.40;99.90;;;;;;5053564;28;21103;-72
2023/12/19 08:25:45;;;;;;;25.47;13.57;;;2.30;99.90;;;;;;5038255;28;20484;-68
2023/12/19 08:28:12;;;;;;;22.43;11.90;;;2.40;99.90;;;;;;5030828;28;20886;-76
2023/12/19 08:30:40;;;;;;;16.30;7.60;;;2.40;99.90;;;;;;5035156;28;20476;-75
2023/12/19 08:33:07;;;;;;;19.50;9.60;;;2.40;99.90;;;;;;5033647;28;20476;-72
2023/12/19 08:35:34;;;;;;;28.33;13.10;;;2.40;99.90;;;;;;5017543;28;20586;-73
2023/12/19 08:38:01;;;;;;;12.70;7.57;;;2.40;99.90;;;;;;5009418;28;20555;-73
2023/12/19 08:40:28;;;;;;;11.27;6.00;;;2.40;99.90;;;;;;5034260;28;20508;-72
2023/12/19 08:42:57;;;;;;;20.40;7.33;;;2.50;99.90;;;;;;5017022;28;20574;-75
2023/12/19 08:45:24;;;;;;;19.20;9.93;;;2.50;99.90;;;;;;5034878;28;20559;-75
2023/12/19 08:47:51;;;;;;;15.47;9.37;;;2.40;99.90;;;;;;5013155;28;20743;-75
2023/12/19 08:50:18;;;;;;;19.03;6.10;;;2.50;99.90;;;;;;5035653;28;20565;-75
2023/12/19 08:52:45;;;;;;;9.93;6.10;;;2.50;99.90;;;;;;5036235;28;20508;-74
2023/12/19 08:55:12;;;;;;;37.73;12.20;;;2.40;99.90;;;;;;5028094;28;20912;-71
2023/12/19 08:57:40;;;;;;;10.10;6.87;;;2.40;99.90;;;;;;5031644;28;20510;-75
2023/12/19 09:00:12;;;;;;;26.33;9.97;;;2.40;99.90;;;;;;5030534;28;20558;-76
2023/12/19 09:02:42;;;;;;;20.57;7.13;;;2.40;99.90;;;;;;5032341;28;21103;-75
2023/12/19 09:05:09;;;;;;;12.80;7.00;;;2.50;99.90;;;;;;5032453;28;20491;-73
2023/12/19 09:07:36;;;;;;;18.70;10.73;;;2.50;99.90;;;;;;5030647;28;21288;-72
2023/12/19 09:10:03;;;;;;;18.20;8.00;;;2.40;99.90;;;;;;5032602;28;20516;-74
2023/12/19 09:12:30;;;;;;;23.90;8.30;;;2.60;99.90;;;;;;5032163;28;20558;-73
2023/12/19 09:14:57;;;;;;;12.70;7.07;;;2.50;99.90;;;;;;5034506;28;20528;-74
2023/12/19 09:17:25;;;;;;;15.90;8.27;;;2.50;99.90;;;;;;5034117;28;21072;-75
2023/12/19 09:19:52;;;;;;;15.13;4.67;;;2.50;99.90;;;;;;5046256;28;20577;-76
2023/12/19 09:22:19;;;;;;;15.60;8.03;;;2.50;99.90;;;;;;5061751;28;20560;-74
2023/12/19 09:24:46;;;;;;;12.60;5.80;;;2.60;99.90;;;;;;5042527;28;20498;-76
2023/12/19 09:27:13;;;;;;;13.00;7.60;;;2.60;99.90;;;;;;5047535;28;21098;-74
2023/12/19 09:29:40;;;;;;;43.23;7.67;;;2.70;99.90;;;;;;5059352;28;20847;-74
2023/12/19 09:32:07;;;;;;;12.33;6.13;;;2.70;99.90;;;;;;5033921;28;20534;-75
2023/12/19 09:34:37;;;;;;;4.90;4.30;;;2.80;99.90;;;;;;5061774;28;20467;-76
2023/12/19 09:37:05;;;;;;;22.07;7.47;;;2.90;99.90;;;;;;5004141;28;20478;-72
2023/12/19 09:39:32;;;;;;;19.23;6.77;;;2.80;99.90;;;;;;5047159;28;20569;-74
2023/12/19 09:41:59;;;;;;;15.87;9.57;;;2.80;99.90;;;;;;5065272;28;20550;-74
2023/12/19 09:44:27;;;;;;;11.80;6.80;;;2.70;99.90;;;;;;5048904;28;20573;-76
2023/12/19 09:46:54;;;;;;;11.70;6.07;;;2.70;99.90;;;;;;5053128;28;20589;-75
2023/12/19 09:49:22;;;;;;;12.47;4.47;;;2.70;99.90;;;;;;5057708;28;20509;-72
2023/12/19 09:51:53;;;;;;;12.30;5.20;;;2.80;99.90;;;;;;5050955;28;20506;-75
2023/12/19 09:54:21;;;;;;;9.83;5.70;;;2.80;99.90;;;;;;5046955;28;21006;-74
2023/12/19 09:56:48;;;;;;;13.57;6.90;;;2.70;99.90;;;;;;5044971;28;20481;-74
2023/12/19 09:59:16;;;;;;;16.67;6.30;;;2.80;99.90;;;;;;5059336;28;20733;-75
2023/12/19 10:01:43;;;;;;;17.23;7.00;;;2.80;99.90;;;;;;5050494;28;21237;-74
2023/12/19 10:04:14;;;;;;;38.17;7.00;;;2.80;99.90;;;;;;5037583;28;20561;-73
2023/12/19 10:06:43;;;;;;;9.00;6.27;;;2.80;99.90;;;;;;5036825;28;20570;-76
2023/12/19 10:09:15;;;;;;;10.43;6.27;;;2.80;99.90;;;;;;5016883;28;20620;-74
2023/12/19 10:11:42;;;;;;;14.63;8.10;;;2.90;99.90;;;;;;5050607;28;20503;-74
2023/12/19 10:14:10;;;;;;;21.40;10.07;;;2.80;99.90;;;;;;5043824;28;20552;-72
2023/12/19 10:16:40;;;;;;;8.80;4.77;;;2.90;99.90;;;;;;5050229;28;20494;-75
2023/12/19 10:19:08;;;;;;;12.00;7.60;;;2.90;99.90;;;;;;5063384;28;20483;-76
2023/12/19 10:21:36;;;;;;;17.17;12.70;;;3.00;99.90;;;;;;5056635;28;20500;-72
2023/12/19 10:24:11;;;;;;;11.67;6.23;;;2.90;99.90;;;;;;5056300;28;21234;-78
2023/12/19 10:26:38;;;;;;;13.07;8.00;;;2.90;99.90;;;;;;5035672;28;20485;-75
2023/12/19 10:29:06;;;;;;;14.00;9.40;;;;;;;;;;5055670;28;20471;-76
2023/12/19 10:31:35;;;;;;;39.57;10.03;;;2.90;99.90;;;;;;5050593;28;20509;-76
2023/12/19 10:34:05;;;;;;;4.90;2.97;;;3.00;99.90;;;;;;5051577;28;20467;-74
2023/12/19 10:36:32;;;;;;;13.60;5.37;;;3.10;99.90;;;;;;5030438;28;20489;-75
2023/12/19 10:39:01;;;;;;;30.93;8.07;;;3.10;99.90;;;;;;5038881;28;20509;-75
2023/12/19 10:41:30;;;;;;;13.37;5.43;;;3.10;99.90;;;;;;5038692;28;21005;-74
2023/12/19 10:43:58;;;;;;;16.53;8.67;;;3.10;99.90;;;;;;5038416;28;20482;-73
2023/12/19 10:46:29;;;;;;;12.90;7.30;;;3.10;99.90;;;;;;5012719;28;22941;-74
2023/12/19 10:48:56;;;;;;;13.43;5.43;;;;;;;;;;5016624;28;20507;-77
2023/12/19 10:51:32;;;;;;;8.20;3.50;;;3.20;99.90;;;;;;5029166;28;20558;-69
2023/12/19 10:54:05;;;;;;;7.40;4.80;;;3.30;99.90;;;;;;5034821;28;20483;-68
2023/12/19 10:56:37;;;;;;;11.13;6.70;;;3.30;99.90;;;;;;5033104;28;20486;-71
2023/12/19 10:59:07;;;;;;;23.33;5.37;;;3.30;99.90;;;;;;5045022;28;20468;-68
2023/12/19 11:01:39;;;;;;;14.40;6.17;;;3.30;99.90;;;;;;5045647;28;20573;-72
2023/12/19 11:04:19;;;;;;;9.10;7.20;;;3.20;99.90;;;;;;5036264;28;21063;-69
2023/12/19 11:06:53;;;;;;;16.03;6.10;;;3.10;99.90;;;;;;5049806;28;20972;-73
2023/12/19 11:09:27;;;;;;;15.13;6.57;;;3.10;99.90;;;;;;5050591;28;21039;-69
2023/12/19 11:11:56;;;;;;;11.30;7.13;;;3.10;99.90;;;;;;5035431;28;20573;-69
2023/12/19 11:14:24;;;;;;;17.20;7.10;;;3.00;99.90;;;;;;5042558;28;20994;-69
2023/12/19 11:16:57;;;;;;;8.17;4.37;;;3.10;99.90;;;;;;5029789;28;20859;-72
2023/12/19 11:19:30;;;;;;;8.10;5.43;;;3.10;99.90;;;;;;5035637;28;20542;-70
2023/12/19 11:22:07;;;;;;;14.53;6.03;;;3.20;99.90;;;;;;5019786;28;20999;-72
2023/12/19 11:24:37;;;;;;;16.80;6.27;;;3.30;99.90;;;;;;5023633;28;20555;-71
2023/12/19 11:27:13;;;;;;;21.83;10.87;;;3.20;99.90;;;;;;5025025;28;20468;-71
2023/12/19 11:29:45;;;;;;;15.30;6.93;;;3.30;99.90;;;;;;5032143;28;20587;-71
2023/12/19 11:32:40;;;;;;;18.47;8.30;;;3.10;99.90;;;;;;5040664;28;20483;-73
2023/12/19 11:35:14;;;;;;;12.57;7.40;;;3.10;99.90;;;;;;5035297;28;20480;-69
2023/12/19 11:37:43;;;;;;;10.63;6.27;;;3.10;99.90;;;;;;5030718;28;20503;-72
2023/12/19 11:40:18;;;;;;;31.60;11.83;;;3.10;99.90;;;;;;5030267;28;20992;-69
2023/12/19 11:42:48;;;;;;;12.93;8.83;;;3.10;99.90;;;;;;5039178;28;20566;-69
2023/12/19 11:45:36;;;;;;;28.00;13.00;;;3.10;99.90;;;;;;5028779;28;20514;-68
2023/12/19 11:48:23;;;;;;;18.07;10.30;;;3.10;99.90;;;;;;5026525;28;20658;-67
2023/12/19 11:50:50;;;;;;;18.20;8.90;;;3.10;99.90;;;;;;5037770;28;20565;-68
2023/12/19 11:53:23;;;;;;;11.90;8.20;;;3.00;99.90;;;;;;5031209;28;20478;-67
2023/12/19 11:55:50;;;;;;;10.17;5.40;;;3.00;99.90;;;;;;5030308;28;20567;-73
2023/12/19 11:58:26;;;;;;;21.90;7.37;;;3.20;99.90;;;;;;5021904;28;20519;-68
2023/12/19 12:01:00;;;;;;;37.63;9.07;;;3.10;99.90;;;;;;5050525;28;20999;-68
2023/12/19 12:03:28;;;;;;;9.33;5.03;;;3.20;99.90;;;;;;5035670;28;20476;-68
2023/12/19 12:05:55;;;;;;;20.73;7.60;;;3.20;99.90;;;;;;5027823;28;20558;-69
2023/12/19 12:08:22;;;;;;;32.33;13.23;;;3.20;99.90;;;;;;5017944;28;20498;-71
2023/12/19 12:11:01;;;;;;;13.87;7.97;;;3.40;99.90;;;;;;5036620;28;20932;-75
2023/12/19 12:13:30;;;;;;;16.30;6.90;;;3.50;99.90;;;;;;5032871;28;20594;-71
2023/12/19 12:15:58;;;;;;;22.70;12.27;;;3.40;99.90;;;;;;5023044;28;20495;-70
2023/12/19 12:18:26;;;;;;;28.27;13.67;;;3.40;99.90;;;;;;5030794;28;20483;-69
2023/12/19 12:20:54;;;;;;;13.87;8.20;;;3.10;99.90;;;;;;5045850;28;20569;-70
2023/12/19 12:23:21;;;;;;;10.67;5.90;;;3.20;99.90;;;;;;5023595;28;20515;-67
2023/12/19 12:25:56;;;;;;;19.10;11.57;;;3.30;99.90;;;;;;5041404;28;21119;-68
2023/12/19 12:28:26;;;;;;;20.53;10.67;;;3.30;99.90;;;;;;5043156;28;20469;-70
2023/12/19 12:30:59;;;;;;;15.70;8.60;;;3.30;99.90;;;;;;5041969;28;20543;-69
2023/12/19 12:33:27;;;;;;;23.33;12.00;;;3.30;99.90;;;;;;5033797;28;20475;-71
2023/12/19 12:35:55;;;;;;;21.30;10.30;;;3.20;99.90;;;;;;5038503;28;20486;-73
2023/12/19 12:38:23;;;;;;;31.27;14.57;;;3.20;99.90;;;;;;5049236;28;20482;-71
2023/12/19 12:40:54;;;;;;;25.23;11.40;;;3.10;99.90;;;;;;5050676;28;20479;-73
2023/12/19 12:43:35;;;;;;;30.07;10.30;;;3.30;99.90;;;;;;5043471;28;20486;-69
2023/12/19 12:46:08;;;;;;;17.80;10.27;;;3.20;99.90;;;;;;5052475;28;21014;-69
2023/12/19 12:48:36;;;;;;;14.73;7.13;;;3.10;99.90;;;;;;5047704;28;20979;-68
2023/12/19 12:51:05;;;;;;;13.60;7.10;;;3.10;99.90;;;;;;5032077;28;20511;-74